sensor_id;sensor_type;location;lat;lon;timestamp;temperature;humidity
43862;DHT22;29510;52.140;5.034;2024-02-23T00:03:18;5.80;99.90
43862;DHT22;29510;52.140;5.034;2024-02-23T00:13:18;6.20;83.20
43862;DHT22;29510;52.140;5.034;2024-02-23T00:23:19;6.40;51.30
43862;DHT22;29510;52.140;5.034;2024-02-23T00:33:19;6.50;37.90
43862;DHT22;29510;52.140;5.034;2024-02-23T00:43:20;6.60;23.80
43862;DHT22;29510;52.140;5.034;2024-02-23T00:53:21;6.60;21.20
43862;DHT22;29510;52.140;5.034;2024-02-23T01:03:22;6.50;13.80
43862;DHT22;29510;52.140;5.034;2024-02-23T01:13:23;6.50;18.10
43862;DHT22;29510;52.140;5.034;2024-02-23T01:23:24;6.50;22.30
43862;DHT22;29510;52.140;5.034;2024-02-23T01:33:24;6.20;16.10
43862;DHT22;29510;52.140;5.034;2024-02-23T01:43:25;6.00;17.60
43862;DHT22;29510;52.140;5.034;2024-02-23T01:53:26;5.90;27.50
43862;DHT22;29510;52.140;5.034;2024-02-23T02:03:27;5.70;20.60
43862;DHT22;29510;52.140;5.034;2024-02-23T02:13:29;5.50;29.90
43862;DHT22;29510;52.140;5.034;2024-02-23T02:23:30;5.40;60.20
43862;DHT22;29510;52.140;5.034;2024-02-23T02:33:35;5.70;56.00
43862;DHT22;29510;52.140;5.034;2024-02-23T02:43:36;5.70;58.20
43862;DHT22;29510;52.140;5.034;2024-02-23T02:53:37;5.80;52.90
43862;DHT22;29510;52.140;5.034;2024-02-23T03:03:38;5.80;57.80
43862;DHT22;29510;52.140;5.034;2024-02-23T03:13:39;5.90;53.10
43862;DHT22;29510;52.140;5.034;2024-02-23T03:23:40;5.80;52.60
43862;DHT22;29510;52.140;5.034;2024-02-23T03:33:41;5.80;44.20
43862;DHT22;29510;52.140;5.034;2024-02-23T03:43:41;5.70;39.50
43862;DHT22;29510;52.140;5.034;2024-02-23T03:53:42;5.70;36.90
43862;DHT22;29510;52.140;5.034;2024-02-23T04:03:42;5.60;38.10
43862;DHT22;29510;52.140;5.034;2024-02-23T04:13:43;5.40;46.70
43862;DHT22;29510;52.140;5.034;2024-02-23T04:23:44;5.40;50.10
43862;DHT22;29510;52.140;5.034;2024-02-23T04:33:45;5.30;56.50
43862;DHT22;29510;52.140;5.034;2024-02-23T04:43:45;5.40;57.80
43862;DHT22;29510;52.140;5.034;2024-02-23T04:53:47;5.40;66.40
43862;DHT22;29510;52.140;5.034;2024-02-23T05:03:48;5.50;66.80
43862;DHT22;29510;52.140;5.034;2024-02-23T05:13:49;5.50;65.60
43862;DHT22;29510;52.140;5.034;2024-02-23T05:23:49;5.60;60.80
43862;DHT22;29510;52.140;5.034;2024-02-23T05:33:50;5.70;51.20
43862;DHT22;29510;52.140;5.034;2024-02-23T05:43:51;5.80;41.40
43862;DHT22;29510;52.140;5.034;2024-02-23T05:53:52;5.80;37.40
43862;DHT22;29510;52.140;5.034;2024-02-23T06:03:55;5.90;31.60
43862;DHT22;29510;52.140;5.034;2024-02-23T06:13:56;6.00;29.40
43862;DHT22;29510;52.140;5.034;2024-02-23T06:23:57;6.00;24.50
43862;DHT22;29510;52.140;5.034;2024-02-23T06:33:57;6.10;21.50
43862;DHT22;29510;52.140;5.034;2024-02-23T06:43:58;6.00;21.50
43862;DHT22;29510;52.140;5.034;2024-02-23T06:53:59;6.00;18.60
43862;DHT22;29510;52.140;5.034;2024-02-23T07:03:59;6.00;15.90
43862;DHT22;29510;52.140;5.034;2024-02-23T07:14:00;6.00;14.70
43862;DHT22;29510;52.140;5.034;2024-02-23T07:24:01;6.10;7.60
43862;DHT22;29510;52.140;5.034;2024-02-23T07:34:01;6.30;3.90
43862;DHT22;29510;52.140;5.034;2024-02-23T07:44:02;6.30;2.90
43862;DHT22;29510;52.140;5.034;2024-02-23T07:54:02;6.30;1.00
43862;DHT22;29510;52.140;5.034;2024-02-23T08:04:03;6.30;1.00
43862;DHT22;29510;52.140;5.034;2024-02-23T08:14:04;6.30;1.00
43862;DHT22;29510;52.140;5.034;2024-02-23T08:24:05;6.20;5.10
43862;DHT22;29510;52.140;5.034;2024-02-23T08:34:05;5.90;14.40
43862;DHT22;29510;52.140;5.034;2024-02-23T08:44:07;5.80;26.40
43862;DHT22;29510;52.140;5.034;2024-02-23T08:54:07;5.80;35.60
43862;DHT22;29510;52.140;5.034;2024-02-23T09:04:08;5.80;41.20
43862;DHT22;29510;52.140;5.034;2024-02-23T09:14:09;5.90;60.50
43862;DHT22;29510;52.140;5.034;2024-02-23T09:24:09;5.90;72.00
43862;DHT22;29510;52.140;5.034;2024-02-23T09:34:10;6.00;84.30
43862;DHT22;29510;52.140;5.034;2024-02-23T09:44:12;6.00;79.60
43862;DHT22;29510;52.140;5.034;2024-02-23T09:54:13;6.20;77.70
43862;DHT22;29510;52.140;5.034;2024-02-23T10:04:14;6.60;50.80
43862;DHT22;29510;52.140;5.034;2024-02-23T10:14:15;6.60;49.30
43862;DHT22;29510;52.140;5.034;2024-02-23T10:24:16;6.80;53.10
43862;DHT22;29510;52.140;5.034;2024-02-23T10:34:20;6.70;46.40
43862;DHT22;29510;52.140;5.034;2024-02-23T10:44:21;6.90;39.90
43862;DHT22;29510;52.140;5.034;2024-02-23T10:54:22;7.20;27.50
43862;DHT22;29510;52.140;5.034;2024-02-23T11:04:23;7.40;25.10
43862;DHT22;29510;52.140;5.034;2024-02-23T11:14:35;7.60;13.70
43862;DHT22;29510;52.140;5.034;2024-02-23T11:24:43;7.90;5.00
43862;DHT22;29510;52.140;5.034;2024-02-23T11:34:57;8.00;1.00
43862;DHT22;29510;52.140;5.034;2024-02-23T11:44:58;8.00;1.00
43862;DHT22;29510;52.140;5.034;2024-02-23T11:54:59;8.10;1.00
43862;DHT22;29510;52.140;5.034;2024-02-23T12:05:00;8.10;1.00
43862;DHT22;29510;52.140;5.034;2024-02-23T12:15:01;8.30;1.00
43862;DHT22;29510;52.140;5.034;2024-02-23T12:25:02;8.30;1.00
43862;DHT22;29510;52.140;5.034;2024-02-23T12:35:05;8.40;1.00
43862;DHT22;29510;52.140;5.034;2024-02-23T12:45:05;9.60;1.00
43862;DHT22;29510;52.140;5.034;2024-02-23T12:55:07;9.20;1.00
43862;DHT22;29510;52.140;5.034;2024-02-23T13:05:08;8.80;1.00
43862;DHT22;29510;52.140;5.034;2024-02-23T13:15:10;8.70;1.00
43862;DHT22;29510;52.140;5.034;2024-02-23T13:25:11;8.70;1.00
43862;DHT22;29510;52.140;5.034;2024-02-23T13:35:12;8.70;1.00
43862;DHT22;29510;52.140;5.034;2024-02-23T13:45:14;8.80;1.00
43862;DHT22;29510;52.140;5.034;2024-02-23T13:55:15;8.90;1.00
43862;DHT22;29510;52.140;5.034;2024-02-23T14:05:15;8.90;1.00
43862;DHT22;29510;52.140;5.034;2024-02-23T14:15:18;8.90;1.00
43862;DHT22;29510;52.140;5.034;2024-02-23T14:25:19;8.80;1.00
43862;DHT22;29510;52.140;5.034;2024-02-23T14:35:19;9.00;1.00
43862;DHT22;29510;52.140;5.034;2024-02-23T14:45:21;8.90;1.00
43862;DHT22;29510;52.140;5.034;2024-02-23T14:55:23;9.00;1.00
43862;DHT22;29510;52.140;5.034;2024-02-23T15:05:24;9.10;1.00
43862;DHT22;29510;52.140;5.034;2024-02-23T15:15:24;8.90;1.00
43862;DHT22;29510;52.140;5.034;2024-02-23T15:25:25;8.70;1.00
43862;DHT22;29510;52.140;5.034;2024-02-23T15:35:26;8.70;1.00
43862;DHT22;29510;52.140;5.034;2024-02-23T15:45:28;9.00;1.00
43862;DHT22;29510;52.140;5.034;2024-02-23T15:55:28;9.10;1.00
43862;DHT22;29510;52.140;5.034;2024-02-23T16:05:29;8.80;1.00
43862;DHT22;29510;52.140;5.034;2024-02-23T16:15:29;8.80;1.00
43862;DHT22;29510;52.140;5.034;2024-02-23T16:25:30;8.70;1.00
43862;DHT22;29510;52.140;5.034;2024-02-23T16:35:30;8.60;1.00
43862;DHT22;29510;52.140;5.034;2024-02-23T16:45:31;8.30;1.00
43862;DHT22;29510;52.140;5.034;2024-02-23T16:55:32;8.20;1.00
43862;DHT22;29510;52.140;5.034;2024-02-23T17:05:32;8.00;1.00
43862;DHT22;29510;52.140;5.034;2024-02-23T17:15:33;7.30;1.20
43862;DHT22;29510;52.140;5.034;2024-02-23T17:25:33;6.80;19.20
43862;DHT22;29510;52.140;5.034;2024-02-23T17:35:34;6.50;47.00
43862;DHT22;29510;52.140;5.034;2024-02-23T17:45:34;6.20;89.20
43862;DHT22;29510;52.140;5.034;2024-02-23T17:55:35;6.10;99.90
43862;DHT22;29510;52.140;5.034;2024-02-23T18:05:36;5.90;99.90
43862;DHT22;29510;52.140;5.034;2024-02-23T18:15:36;5.80;99.90
43862;DHT22;29510;52.140;5.034;2024-02-23T18:25:37;5.60;99.90
43862;DHT22;29510;52.140;5.034;2024-02-23T18:35:38;5.40;99.90
43862;DHT22;29510;52.140;5.034;2024-02-23T18:45:38;5.50;99.90
43862;DHT22;29510;52.140;5.034;2024-02-23T18:55:39;5.40;99.90
43862;DHT22;29510;52.140;5.034;2024-02-23T19:05:39;5.50;99.90
43862;DHT22;29510;52.140;5.034;2024-02-23T19:15:40;5.50;99.90
43862;DHT22;29510;52.140;5.034;2024-02-23T19:25:41;5.60;99.90
43862;DHT22;29510;52.140;5.034;2024-02-23T19:35:41;5.70;99.90
43862;DHT22;29510;52.140;5.034;2024-02-23T19:45:42;5.80;99.90
43862;DHT22;29510;52.140;5.034;2024-02-23T19:55:45;5.90;99.90
43862;DHT22;29510;52.140;5.034;2024-02-23T20:05:46;5.80;99.90
43862;DHT22;29510;52.140;5.034;2024-02-23T20:15:46;5.60;99.90
43862;DHT22;29510;52.140;5.034;2024-02-23T20:25:48;5.30;99.90
43862;DHT22;29510;52.140;5.034;2024-02-23T20:35:48;5.20;99.90
43862;DHT22;29510;52.140;5.034;2024-02-23T20:45:49;5.10;99.90
43862;DHT22;29510;52.140;5.034;2024-02-23T20:55:51;5.20;99.90
43862;DHT22;29510;52.140;5.034;2024-02-23T21:05:52;5.30;99.90
43862;DHT22;29510;52.140;5.034;2024-02-23T21:15:52;5.30;99.90
43862;DHT22;29510;52.140;5.034;2024-02-23T21:25:54;5.40;99.90
43862;DHT22;29510;52.140;5.034;2024-02-23T21:35:54;5.50;99.90
43862;DHT22;29510;52.140;5.034;2024-02-23T21:45:55;5.40;99.90
43862;DHT22;29510;52.140;5.034;2024-02-23T21:55:56;5.50;99.90
43862;DHT22;29510;52.140;5.034;2024-02-23T22:05:56;5.50;99.90
43862;DHT22;29510;52.140;5.034;2024-02-23T22:15:57;5.50;99.90
43862;DHT22;29510;52.140;5.034;2024-02-23T22:25:58;5.50;99.90
43862;DHT22;29510;52.140;5.034;2024-02-23T22:35:59;5.40;99.90
43862;DHT22;29510;52.140;5.034;2024-02-23T22:46:00;5.50;99.90
43862;DHT22;29510;52.140;5.034;2024-02-23T22:56:01;5.30;99.90
43862;DHT22;29510;52.140;5.034;2024-02-23T23:06:02;5.30;99.90
43862;DHT22;29510;52.140;5.034;2024-02-23T23:16:03;5.20;99.90
43862;DHT22;29510;52.140;5.034;2024-02-23T23:26:04;5.10;99.90
43862;DHT22;29510;52.140;5.034;2024-02-23T23:36:05;5.10;99.90
43862;DHT22;29510;52.140;5.034;2024-02-23T23:46:06;4.90;99.90
43862;DHT22;29510;52.140;5.034;2024-02-23T23:56:09;4.90;99.90
